createdAt,value
2017-10-10T00:00:03.133Z,0
2017-10-10T00:01:05.569Z,0
2017-10-10T00:02:07.997Z,0
2017-10-10T00:03:10.418Z,0
2017-10-10T00:04:12.849Z,0
2017-10-10T00:05:15.271Z,0
2017-10-10T00:06:17.709Z,0
2017-10-10T00:07:20.138Z,0
2017-10-10T00:08:22.924Z,0
2017-10-10T00:09:25.356Z,0
2017-10-10T00:10:27.778Z,0
2017-10-10T00:11:30.208Z,0
2017-10-10T00:12:32.987Z,0
2017-10-10T00:13:35.416Z,0
2017-10-10T00:14:37.849Z,0
2017-10-10T00:15:40.639Z,0
2017-10-10T00:16:43.070Z,0
2017-10-10T00:17:45.494Z,0
2017-10-10T00:18:47.922Z,0
2017-10-10T00:19:50.722Z,0
2017-10-10T00:20:53.152Z,0
2017-10-10T00:21:55.584Z,0
2017-10-10T00:22:58.012Z,0
2017-10-10T00:24:00.426Z,0
2017-10-10T00:25:03.215Z,0
2017-10-10T00:26:05.643Z,0
2017-10-10T00:27:08.076Z,0
2017-10-10T00:28:10.502Z,0
2017-10-10T00:29:12.913Z,0
2017-10-10T00:30:15.350Z,0
2017-10-10T00:31:18.142Z,0
2017-10-10T00:32:20.563Z,0
2017-10-10T00:33:22.996Z,0
2017-10-10T00:34:25.426Z,0
2017-10-10T00:35:27.856Z,0
2017-10-10T00:36:30.293Z,0
2017-10-10T00:37:32.721Z,0
2017-10-10T00:38:35.140Z,0
2017-10-10T00:39:37.573Z,0
2017-10-10T00:40:39.996Z,0
2017-10-10T00:41:42.425Z,0
2017-10-10T00:42:44.850Z,0
2017-10-10T00:43:47.281Z,0
2017-10-10T00:44:50.449Z,0
2017-10-10T00:45:52.876Z,0
2017-10-10T00:46:55.304Z,0
2017-10-10T00:47:57.738Z,0
2017-10-10T00:49:00.166Z,0
2017-10-10T00:50:03.324Z,0
2017-10-10T00:51:05.747Z,0
2017-10-10T00:52:08.174Z,0
2017-10-10T00:53:10.596Z,0
2017-10-10T00:54:13.030Z,0
2017-10-10T00:55:15.453Z,0
2017-10-10T00:56:18.430Z,0
2017-10-10T00:57:21.984Z,0
2017-10-10T00:58:24.401Z,0
2017-10-10T00:59:27.171Z,0
2017-10-10T01:00:29.608Z,0
2017-10-10T01:01:32.028Z,0
2017-10-10T01:02:34.471Z,0
2017-10-10T01:03:36.891Z,0
2017-10-10T01:04:39.311Z,0
2017-10-10T01:05:41.752Z,0
2017-10-10T01:06:44.173Z,0
2017-10-10T01:07:46.606Z,0
2017-10-10T01:08:49.024Z,0
2017-10-10T01:09:51.788Z,0
2017-10-10T01:10:54.217Z,0
2017-10-10T01:11:57.721Z,0
2017-10-10T01:13:00.502Z,0
2017-10-10T01:14:02.919Z,0
2017-10-10T01:15:05.343Z,0
2017-10-10T01:16:07.775Z,0
2017-10-10T01:17:10.196Z,0
2017-10-10T01:18:12.624Z,0
2017-10-10T01:19:15.051Z,0
2017-10-10T01:20:17.467Z,0
2017-10-10T01:21:19.911Z,0
2017-10-10T01:22:22.712Z,0
2017-10-10T01:23:25.128Z,0
2017-10-10T01:24:27.568Z,0
2017-10-10T01:25:29.982Z,0
2017-10-10T01:26:32.417Z,0
2017-10-10T01:27:34.851Z,0
2017-10-10T01:28:37.264Z,0
2017-10-10T01:29:39.697Z,0
2017-10-10T01:30:42.134Z,0
2017-10-10T01:31:44.558Z,0
2017-10-10T01:32:46.982Z,0
2017-10-10T01:33:49.408Z,0
2017-10-10T01:34:51.830Z,0
2017-10-10T01:35:54.264Z,0
2017-10-10T01:36:56.686Z,0
2017-10-10T01:37:59.122Z,0
2017-10-10T01:39:01.544Z,0
2017-10-10T01:40:03.979Z,0
2017-10-10T01:41:06.788Z,0
2017-10-10T01:42:09.213Z,0
2017-10-10T01:43:12.003Z,0
2017-10-10T01:44:14.440Z,0
2017-10-10T01:45:16.864Z,0
2017-10-10T01:46:19.653Z,0
2017-10-10T01:47:22.083Z,0
2017-10-10T01:48:24.881Z,0
2017-10-10T01:49:27.302Z,0
2017-10-10T01:50:29.735Z,0
2017-10-10T01:51:32.153Z,0
2017-10-10T01:52:34.604Z,0
2017-10-10T01:53:37.022Z,0
2017-10-10T01:54:39.789Z,0
2017-10-10T01:55:42.223Z,0
2017-10-10T01:56:44.647Z,0
2017-10-10T01:57:47.441Z,0
2017-10-10T01:58:49.869Z,0
2017-10-10T01:59:52.303Z,0
2017-10-10T02:00:54.719Z,0
2017-10-10T02:01:57.154Z,0
2017-10-10T02:02:59.583Z,0
2017-10-10T02:04:01.995Z,0
2017-10-10T02:05:04.435Z,0
2017-10-10T02:06:06.858Z,0
2017-10-10T02:07:09.291Z,0
2017-10-10T02:08:11.725Z,0
2017-10-10T02:09:14.148Z,0
2017-10-10T02:10:16.577Z,0
2017-10-10T02:11:19.010Z,0
2017-10-10T02:12:21.789Z,0
2017-10-10T02:13:24.572Z,0
2017-10-10T02:14:27.348Z,0
2017-10-10T02:15:29.780Z,0
2017-10-10T02:16:32.197Z,0
2017-10-10T02:17:34.626Z,0
2017-10-10T02:18:37.065Z,0
2017-10-10T02:19:39.481Z,0
2017-10-10T02:20:41.908Z,0
2017-10-10T02:21:44.336Z,0
2017-10-10T02:22:46.773Z,0
2017-10-10T02:23:49.202Z,0
2017-10-10T02:24:51.637Z,0
2017-10-10T02:25:54.049Z,0
2017-10-10T02:26:56.497Z,0
2017-10-10T02:27:59.265Z,0
2017-10-10T02:29:01.698Z,0
2017-10-10T02:30:04.487Z,0
2017-10-10T02:31:06.920Z,0
2017-10-10T02:32:09.353Z,0
2017-10-10T02:33:11.779Z,0
2017-10-10T02:34:14.204Z,0
2017-10-10T02:35:16.644Z,0
2017-10-10T02:36:19.067Z,0
2017-10-10T02:37:21.859Z,0
2017-10-10T02:38:24.287Z,0
2017-10-10T02:39:26.725Z,0
2017-10-10T02:40:29.507Z,0
2017-10-10T02:41:31.929Z,0
2017-10-10T02:42:34.731Z,0
2017-10-10T02:43:37.516Z,0
2017-10-10T02:44:40.285Z,0
2017-10-10T02:45:42.716Z,0
2017-10-10T02:46:45.499Z,0
2017-10-10T02:47:48.292Z,0
2017-10-10T02:48:51.072Z,0
2017-10-10T02:49:53.496Z,0
2017-10-10T02:50:55.922Z,0
2017-10-10T02:51:58.370Z,0
2017-10-10T02:53:00.793Z,0
2017-10-10T02:54:03.214Z,0
2017-10-10T02:55:05.642Z,0
2017-10-10T02:56:08.077Z,0
2017-10-10T02:57:10.497Z,0
2017-10-10T02:58:12.930Z,0
2017-10-10T02:59:15.361Z,0
2017-10-10T03:00:17.787Z,0
2017-10-10T03:01:20.222Z,0
2017-10-10T03:02:22.651Z,0
2017-10-10T03:03:25.068Z,0
2017-10-10T03:04:27.503Z,0
2017-10-10T03:05:29.933Z,0
2017-10-10T03:06:32.361Z,0
2017-10-10T03:07:34.790Z,0
2017-10-10T03:08:37.580Z,0
2017-10-10T03:09:40.006Z,0
2017-10-10T03:10:42.449Z,0
2017-10-10T03:11:44.887Z,0
2017-10-10T03:12:47.692Z,0
2017-10-10T03:13:50.122Z,0
2017-10-10T03:14:52.549Z,0
2017-10-10T03:15:55.327Z,0
2017-10-10T03:16:57.762Z,0
2017-10-10T03:18:00.185Z,0
2017-10-10T03:19:02.625Z,0
2017-10-10T03:20:05.402Z,0
2017-10-10T03:21:08.188Z,0
2017-10-10T03:22:10.609Z,0
2017-10-10T03:23:13.039Z,0
2017-10-10T03:24:15.461Z,0
2017-10-10T03:25:17.890Z,0
2017-10-10T03:26:20.329Z,0
2017-10-10T03:27:22.747Z,0
2017-10-10T03:28:25.578Z,0
2017-10-10T03:29:27.982Z,0
2017-10-10T03:30:30.420Z,0
2017-10-10T03:31:33.197Z,0
2017-10-10T03:32:35.631Z,0
2017-10-10T03:33:38.053Z,0
2017-10-10T03:34:40.487Z,0
2017-10-10T03:35:42.918Z,0
2017-10-10T03:36:45.336Z,0
2017-10-10T03:37:47.767Z,0
2017-10-10T03:38:50.201Z,0
2017-10-10T03:39:52.622Z,0
2017-10-10T03:40:55.446Z,0
2017-10-10T03:41:57.861Z,0
2017-10-10T03:43:00.293Z,0
2017-10-10T03:44:02.730Z,0
2017-10-10T03:45:05.161Z,0
2017-10-10T03:46:07.591Z,0
2017-10-10T03:47:10.018Z,0
2017-10-10T03:48:12.439Z,0
2017-10-10T03:49:14.879Z,0
2017-10-10T03:50:17.295Z,0
2017-10-10T03:51:19.736Z,0
2017-10-10T03:52:22.164Z,0
2017-10-10T03:53:24.597Z,0
2017-10-10T03:54:27.385Z,0
2017-10-10T03:55:29.811Z,0
2017-10-10T03:56:32.246Z,0
2017-10-10T03:57:34.675Z,0
2017-10-10T03:58:37.104Z,0
2017-10-10T03:59:39.537Z,0
2017-10-10T04:00:41.953Z,0
2017-10-10T04:01:44.763Z,0
2017-10-10T04:02:47.209Z,0
2017-10-10T04:03:50.002Z,0
2017-10-10T04:04:52.440Z,0
2017-10-10T04:05:54.863Z,0
2017-10-10T04:06:57.290Z,0
2017-10-10T04:07:59.733Z,0
2017-10-10T04:09:02.156Z,0
2017-10-10T04:10:04.574Z,0
2017-10-10T04:11:07.369Z,0
2017-10-10T04:12:09.798Z,0
2017-10-10T04:13:12.236Z,0
2017-10-10T04:14:14.674Z,0
2017-10-10T04:15:17.123Z,0
2017-10-10T04:16:19.725Z,0
2017-10-10T04:17:22.146Z,0
2017-10-10T04:18:24.576Z,0
2017-10-10T04:19:26.998Z,0
2017-10-10T04:20:29.447Z,0
2017-10-10T04:21:32.237Z,0
2017-10-10T04:22:34.672Z,0
2017-10-10T04:23:37.092Z,0
2017-10-10T04:24:39.531Z,0
2017-10-10T04:25:41.965Z,0
2017-10-10T04:26:44.393Z,0
2017-10-10T04:27:47.182Z,0
2017-10-10T04:28:49.610Z,0
2017-10-10T04:29:52.043Z,0
2017-10-10T04:30:54.478Z,0
2017-10-10T04:31:57.246Z,0
2017-10-10T04:32:59.684Z,0
2017-10-10T04:34:02.105Z,0
2017-10-10T04:35:04.528Z,0
2017-10-10T04:36:06.957Z,0
2017-10-10T04:37:09.388Z,0
2017-10-10T04:38:12.171Z,0
2017-10-10T04:39:14.601Z,0
2017-10-10T04:40:17.035Z,0
2017-10-10T04:41:19.458Z,0
2017-10-10T04:42:22.287Z,0
2017-10-10T04:43:25.063Z,0
2017-10-10T04:44:27.496Z,0
2017-10-10T04:45:29.924Z,0
2017-10-10T04:46:32.709Z,0
2017-10-10T04:47:35.131Z,0
2017-10-10T04:48:37.567Z,0
2017-10-10T04:49:40.342Z,0
2017-10-10T04:50:42.768Z,0
2017-10-10T04:51:45.196Z,0
2017-10-10T04:52:47.637Z,0
2017-10-10T04:53:50.057Z,0
2017-10-10T04:54:52.496Z,0
2017-10-10T04:55:54.928Z,0
2017-10-10T04:56:57.716Z,0
2017-10-10T04:58:00.152Z,0
2017-10-10T04:59:02.579Z,0
2017-10-10T05:00:05.004Z,0
2017-10-10T05:01:07.434Z,0
2017-10-10T05:02:09.863Z,0
2017-10-10T05:03:12.285Z,0
2017-10-10T05:04:14.718Z,0
2017-10-10T05:05:17.144Z,0
2017-10-10T05:06:19.574Z,0
2017-10-10T05:07:22.014Z,0
2017-10-10T05:08:24.803Z,0
2017-10-10T05:09:27.237Z,0
2017-10-10T05:10:29.669Z,0
2017-10-10T05:11:32.102Z,0
2017-10-10T05:12:34.513Z,0
2017-10-10T05:13:36.949Z,0
2017-10-10T05:14:39.386Z,0
2017-10-10T05:15:41.808Z,0
2017-10-10T05:16:44.236Z,0
2017-10-10T05:17:46.664Z,0
2017-10-10T05:18:49.087Z,0
2017-10-10T05:19:51.526Z,0
2017-10-10T05:20:53.949Z,0
2017-10-10T05:21:56.380Z,0
2017-10-10T05:22:58.807Z,0
2017-10-10T05:24:01.240Z,0
2017-10-10T05:25:03.667Z,0
2017-10-10T05:26:06.098Z,0
2017-10-10T05:27:08.523Z,0
2017-10-10T05:28:10.950Z,0
2017-10-10T05:29:13.369Z,0
2017-10-10T05:30:15.801Z,0
2017-10-10T05:31:18.241Z,0
2017-10-10T05:32:20.667Z,0
2017-10-10T05:33:23.081Z,0
2017-10-10T05:34:25.513Z,0
2017-10-10T05:35:28.311Z,0
2017-10-10T05:36:31.107Z,0
2017-10-10T05:37:33.534Z,0
2017-10-10T05:38:35.971Z,0
2017-10-10T05:39:38.401Z,0
2017-10-10T05:40:40.812Z,0
2017-10-10T05:41:43.247Z,1
2017-10-10T05:42:45.679Z,1
2017-10-10T05:43:48.118Z,1
2017-10-10T05:44:50.893Z,1
2017-10-10T05:45:53.322Z,1
2017-10-10T05:46:55.744Z,1
2017-10-10T05:47:58.528Z,1
2017-10-10T05:49:00.954Z,1
2017-10-10T05:50:03.372Z,1
2017-10-10T05:51:05.797Z,1
2017-10-10T05:52:08.585Z,2
2017-10-10T05:53:11.007Z,2
2017-10-10T05:54:13.431Z,2
2017-10-10T05:55:16.204Z,2
2017-10-10T05:56:18.636Z,2
2017-10-10T05:57:21.064Z,2
2017-10-10T05:58:23.491Z,2
2017-10-10T05:59:25.915Z,3
2017-10-10T06:00:28.350Z,2
2017-10-10T06:01:30.767Z,2
2017-10-10T06:02:33.214Z,2
2017-10-10T06:03:35.636Z,2
2017-10-10T06:04:38.053Z,2
2017-10-10T06:05:40.488Z,3
2017-10-10T06:06:42.910Z,3
2017-10-10T06:07:45.334Z,3
2017-10-10T06:08:47.761Z,3
2017-10-10T06:09:50.285Z,3
2017-10-10T06:10:52.719Z,3
2017-10-10T06:11:55.140Z,3
2017-10-10T06:12:57.567Z,4
2017-10-10T06:14:00.011Z,4
2017-10-10T06:15:02.783Z,4
2017-10-10T06:16:05.562Z,4
2017-10-10T06:17:07.982Z,3
2017-10-10T06:18:10.409Z,4
2017-10-10T06:19:12.838Z,4
2017-10-10T06:20:15.267Z,4
2017-10-10T06:21:17.701Z,4
2017-10-10T06:22:20.132Z,5
2017-10-10T06:23:22.563Z,5
2017-10-10T06:24:25.341Z,6
2017-10-10T06:25:27.774Z,8
2017-10-10T06:26:30.189Z,7
2017-10-10T06:27:32.619Z,7
2017-10-10T06:28:35.060Z,7
2017-10-10T06:29:37.476Z,8
2017-10-10T06:30:39.909Z,8
2017-10-10T06:31:42.337Z,9
2017-10-10T06:32:44.766Z,9
2017-10-10T06:33:47.543Z,10
2017-10-10T06:34:49.977Z,9
2017-10-10T06:35:52.388Z,11
2017-10-10T06:36:55.186Z,11
2017-10-10T06:37:57.619Z,10
2017-10-10T06:39:00.057Z,9
2017-10-10T06:40:02.479Z,9
2017-10-10T06:41:04.904Z,10
2017-10-10T06:42:07.328Z,9
2017-10-10T06:43:09.758Z,7
2017-10-10T06:44:12.196Z,6
2017-10-10T06:45:14.616Z,6
2017-10-10T06:46:17.390Z,8
2017-10-10T06:47:19.811Z,8
2017-10-10T06:48:22.244Z,9
2017-10-10T06:49:25.025Z,6
2017-10-10T06:50:27.455Z,6
2017-10-10T06:51:29.879Z,5
2017-10-10T06:52:32.310Z,5
2017-10-10T06:53:34.741Z,7
2017-10-10T06:54:37.173Z,8
2017-10-10T06:55:39.956Z,8
2017-10-10T06:56:42.394Z,7
2017-10-10T06:57:44.821Z,8
2017-10-10T06:58:47.242Z,7
2017-10-10T06:59:49.680Z,8
2017-10-10T07:00:52.103Z,9
2017-10-10T07:01:54.532Z,9
2017-10-10T07:02:56.966Z,9
2017-10-10T07:03:59.374Z,9
2017-10-10T07:05:01.802Z,9
2017-10-10T07:06:04.227Z,9
2017-10-10T07:07:06.660Z,10
2017-10-10T07:08:09.083Z,11
2017-10-10T07:09:11.871Z,13
2017-10-10T07:10:14.631Z,12
2017-10-10T07:11:17.052Z,15
2017-10-10T07:12:19.481Z,19
2017-10-10T07:13:21.918Z,21
2017-10-10T07:14:24.341Z,19
2017-10-10T07:15:26.772Z,20
2017-10-10T07:16:29.196Z,19
2017-10-10T07:17:31.630Z,18
2017-10-10T07:18:34.057Z,18
2017-10-10T07:19:36.844Z,20
2017-10-10T07:20:39.264Z,21
2017-10-10T07:21:41.699Z,21
2017-10-10T07:22:44.127Z,21
2017-10-10T07:23:46.931Z,21
2017-10-10T07:24:49.704Z,21
2017-10-10T07:25:52.140Z,20
2017-10-10T07:26:54.558Z,21
2017-10-10T07:27:56.995Z,22
2017-10-10T07:28:59.420Z,23
2017-10-10T07:30:01.846Z,24
2017-10-10T07:31:04.281Z,24
2017-10-10T07:32:06.706Z,27
2017-10-10T07:33:09.129Z,33
2017-10-10T07:34:11.564Z,33
2017-10-10T07:35:13.980Z,35
2017-10-10T07:36:16.412Z,37
2017-10-10T07:37:18.848Z,37
2017-10-10T07:38:21.630Z,33
2017-10-10T07:39:24.064Z,35
2017-10-10T07:40:26.488Z,31
2017-10-10T07:41:28.918Z,31
2017-10-10T07:42:31.350Z,30
2017-10-10T07:43:33.777Z,29
2017-10-10T07:44:36.224Z,30
2017-10-10T07:45:38.664Z,31
2017-10-10T07:46:41.091Z,31
2017-10-10T07:47:43.544Z,27
2017-10-10T07:48:45.983Z,26
2017-10-10T07:49:48.423Z,24
2017-10-10T07:50:50.857Z,24
2017-10-10T07:51:53.293Z,23
2017-10-10T07:52:55.738Z,23
2017-10-10T07:53:58.196Z,26
2017-10-10T07:55:00.636Z,31
2017-10-10T07:56:03.085Z,32
2017-10-10T07:57:05.523Z,36
2017-10-10T07:58:08.311Z,36
2017-10-10T07:59:10.734Z,39
2017-10-10T08:00:13.169Z,41
2017-10-10T08:01:15.597Z,46
2017-10-10T08:02:18.033Z,49
2017-10-10T08:03:20.853Z,54
2017-10-10T08:04:23.285Z,48
2017-10-10T08:05:25.721Z,47
2017-10-10T08:06:28.518Z,46
2017-10-10T08:07:30.961Z,44
2017-10-10T08:08:33.380Z,42
2017-10-10T08:09:36.186Z,40
2017-10-10T08:10:38.632Z,41
2017-10-10T08:11:41.073Z,41
2017-10-10T08:12:43.829Z,39
2017-10-10T08:13:46.262Z,43
2017-10-10T08:14:48.700Z,47
2017-10-10T08:15:51.135Z,53
2017-10-10T08:16:53.926Z,46
2017-10-10T08:17:56.336Z,38
2017-10-10T08:18:58.777Z,39
2017-10-10T08:20:01.202Z,40
2017-10-10T08:21:03.990Z,42
2017-10-10T08:22:06.420Z,38
2017-10-10T08:23:08.847Z,32
2017-10-10T08:24:11.277Z,35
2017-10-10T08:25:13.727Z,33
2017-10-10T08:26:16.153Z,35
2017-10-10T08:27:18.574Z,37
2017-10-10T08:28:21.005Z,36
2017-10-10T08:29:23.436Z,31
2017-10-10T08:30:25.867Z,30
2017-10-10T08:31:28.300Z,33
2017-10-10T08:32:30.725Z,37
2017-10-10T08:33:33.157Z,40
2017-10-10T08:34:35.584Z,41
2017-10-10T08:35:38.023Z,37
2017-10-10T08:36:40.451Z,36
2017-10-10T08:37:42.884Z,38
2017-10-10T08:38:45.312Z,38
2017-10-10T08:39:48.128Z,42
2017-10-10T08:40:50.553Z,43
2017-10-10T08:41:53.001Z,37
2017-10-10T08:42:55.435Z,32
2017-10-10T08:43:57.864Z,26
2017-10-10T08:45:00.701Z,27
2017-10-10T08:46:03.146Z,31
2017-10-10T08:47:05.571Z,30
2017-10-10T08:48:08.009Z,29
2017-10-10T08:49:10.440Z,30
2017-10-10T08:50:12.869Z,26
2017-10-10T08:51:15.312Z,24
2017-10-10T08:52:17.732Z,26
2017-10-10T08:53:20.155Z,27
2017-10-10T08:54:22.584Z,23
2017-10-10T08:55:25.012Z,22
2017-10-10T08:56:27.446Z,22
2017-10-10T08:57:29.878Z,22
2017-10-10T08:58:32.290Z,21
2017-10-10T08:59:34.732Z,21
2017-10-10T09:00:37.169Z,22
2017-10-10T09:01:39.604Z,26
2017-10-10T09:02:42.041Z,24
2017-10-10T09:03:44.474Z,24
2017-10-10T09:04:46.909Z,28
2017-10-10T09:05:49.344Z,30
2017-10-10T09:06:51.776Z,34
2017-10-10T09:07:54.235Z,35
2017-10-10T09:08:56.684Z,45
2017-10-10T09:09:59.896Z,48
2017-10-10T09:11:02.343Z,46
2017-10-10T09:12:04.799Z,55
2017-10-10T09:13:07.589Z,57
2017-10-10T09:14:10.042Z,46
2017-10-10T09:15:12.499Z,41
2017-10-10T09:16:14.932Z,45
2017-10-10T09:17:17.355Z,45
2017-10-10T09:18:19.791Z,44
2017-10-10T09:19:22.221Z,48
2017-10-10T09:20:25.033Z,51
2017-10-10T09:21:27.463Z,48
2017-10-10T09:22:29.888Z,47
2017-10-10T09:23:32.316Z,43
2017-10-10T09:24:34.764Z,52
2017-10-10T09:25:37.573Z,53
2017-10-10T09:26:40.010Z,61
2017-10-10T09:27:42.444Z,67
2017-10-10T09:28:44.898Z,53
2017-10-10T09:29:47.358Z,57
2017-10-10T09:30:49.819Z,65
2017-10-10T09:31:52.278Z,49
2017-10-10T09:32:54.744Z,44
2017-10-10T09:33:57.200Z,40
2017-10-10T09:34:59.655Z,40
2017-10-10T09:36:02.454Z,43
2017-10-10T09:37:04.900Z,50
2017-10-10T09:38:07.335Z,66
2017-10-10T09:39:10.530Z,86
2017-10-10T09:40:12.986Z,69
2017-10-10T09:41:15.436Z,54
2017-10-10T09:42:18.233Z,58
2017-10-10T09:43:20.661Z,70
2017-10-10T09:44:23.108Z,59
2017-10-10T09:45:25.574Z,80
2017-10-10T09:46:28.031Z,61
2017-10-10T09:47:30.502Z,47
2017-10-10T09:48:32.951Z,48
2017-10-10T09:49:35.418Z,57
2017-10-10T09:50:37.875Z,82
2017-10-10T09:51:40.339Z,79
2017-10-10T09:52:42.790Z,59
2017-10-10T09:53:45.252Z,93
2017-10-10T09:54:47.711Z,98
2017-10-10T09:55:50.176Z,95
2017-10-10T09:56:52.990Z,79
2017-10-10T09:57:55.422Z,76
2017-10-10T09:58:57.867Z,75
2017-10-10T10:00:00.292Z,76
2017-10-10T10:01:03.083Z,84
2017-10-10T10:02:05.516Z,79
2017-10-10T10:03:08.294Z,75
2017-10-10T10:04:10.721Z,94
2017-10-10T10:05:13.165Z,76
2017-10-10T10:06:15.968Z,82
2017-10-10T10:07:18.405Z,96
2017-10-10T10:08:20.830Z,105
2017-10-10T10:09:23.625Z,140
2017-10-10T10:10:26.064Z,172
2017-10-10T10:11:28.850Z,175
2017-10-10T10:12:31.291Z,171
2017-10-10T10:13:33.718Z,121
2017-10-10T10:14:36.157Z,94
2017-10-10T10:15:38.948Z,73
2017-10-10T10:16:41.384Z,93
2017-10-10T10:17:44.235Z,68
2017-10-10T10:18:46.674Z,73
2017-10-10T10:19:49.103Z,69
2017-10-10T10:20:51.550Z,71
2017-10-10T10:21:53.985Z,92
2017-10-10T10:22:56.416Z,126
2017-10-10T10:23:58.863Z,112
2017-10-10T10:25:01.292Z,91
2017-10-10T10:26:03.726Z,105
2017-10-10T10:27:06.153Z,85
2017-10-10T10:28:08.595Z,79
2017-10-10T10:29:11.025Z,65
2017-10-10T10:30:13.464Z,67
2017-10-10T10:31:16.246Z,66
2017-10-10T10:32:19.045Z,60
2017-10-10T10:33:21.491Z,53
2017-10-10T10:34:24.271Z,43
2017-10-10T10:35:26.705Z,44
2017-10-10T10:36:29.146Z,59
2017-10-10T10:37:31.584Z,74
2017-10-10T10:38:34.010Z,96
2017-10-10T10:39:36.806Z,104
2017-10-10T10:40:39.240Z,67
2017-10-10T10:41:41.676Z,47
2017-10-10T10:42:44.105Z,39
2017-10-10T10:43:46.538Z,37
2017-10-10T10:44:48.968Z,45
2017-10-10T10:45:51.417Z,56
2017-10-10T10:46:53.847Z,65
2017-10-10T10:47:56.271Z,78
2017-10-10T10:48:58.715Z,70
2017-10-10T10:50:01.144Z,77
2017-10-10T10:51:03.585Z,76
2017-10-10T10:52:06.019Z,80
2017-10-10T10:53:08.462Z,78
2017-10-10T10:54:10.887Z,69
2017-10-10T10:55:13.690Z,74
2017-10-10T10:56:16.127Z,64
2017-10-10T10:57:18.559Z,60
2017-10-10T10:58:20.994Z,47
2017-10-10T10:59:23.426Z,42
2017-10-10T11:00:25.867Z,38
2017-10-10T11:01:28.304Z,31
2017-10-10T11:02:30.741Z,26
2017-10-10T11:03:33.171Z,24
2017-10-10T11:04:35.602Z,31
2017-10-10T11:05:38.043Z,36
2017-10-10T11:06:40.470Z,40
2017-10-10T11:07:42.905Z,39
2017-10-10T11:08:45.346Z,32
2017-10-10T11:09:47.777Z,38
2017-10-10T11:10:50.213Z,39
2017-10-10T11:11:52.658Z,30
2017-10-10T11:12:55.069Z,32
2017-10-10T11:13:57.510Z,42
2017-10-10T11:14:59.947Z,49
2017-10-10T11:16:02.384Z,68
2017-10-10T11:17:04.815Z,57
2017-10-10T11:18:07.259Z,42
2017-10-10T11:19:09.682Z,49
2017-10-10T11:20:12.131Z,50
2017-10-10T11:21:14.547Z,36
2017-10-10T11:22:16.992Z,33
2017-10-10T11:23:19.438Z,33
2017-10-10T11:24:21.866Z,39
2017-10-10T11:25:24.299Z,41
2017-10-10T11:26:26.727Z,36
2017-10-10T11:27:29.164Z,33
2017-10-10T11:28:31.610Z,36
2017-10-10T11:29:34.400Z,36
2017-10-10T11:30:36.822Z,39
2017-10-10T11:31:39.263Z,40
2017-10-10T11:32:41.701Z,42
2017-10-10T11:33:44.127Z,26
2017-10-10T11:34:46.560Z,27
2017-10-10T11:35:48.987Z,30
2017-10-10T11:36:51.427Z,42
2017-10-10T11:37:53.862Z,43
2017-10-10T11:38:56.293Z,44
2017-10-10T11:39:59.088Z,45
2017-10-10T11:41:01.515Z,49
2017-10-10T11:42:03.964Z,59
2017-10-10T11:43:06.777Z,87
2017-10-10T11:44:09.213Z,114
2017-10-10T11:45:11.636Z,129
2017-10-10T11:46:14.072Z,136
2017-10-10T11:47:16.509Z,139
2017-10-10T11:48:18.939Z,136
2017-10-10T11:49:21.373Z,135
2017-10-10T11:50:23.798Z,132
2017-10-10T11:51:26.235Z,125
2017-10-10T11:52:29.023Z,108
2017-10-10T11:53:31.457Z,91
2017-10-10T11:54:33.891Z,73
2017-10-10T11:55:36.326Z,68
2017-10-10T11:56:38.772Z,67
2017-10-10T11:57:41.207Z,68
2017-10-10T11:58:43.640Z,53
2017-10-10T11:59:46.081Z,47
2017-10-10T12:00:48.522Z,37
2017-10-10T12:01:50.962Z,36
2017-10-10T12:02:53.397Z,38
2017-10-10T12:03:56.175Z,40
2017-10-10T12:04:58.620Z,39
2017-10-10T12:06:01.415Z,39
2017-10-10T12:07:04.210Z,42
2017-10-10T12:08:06.637Z,52
2017-10-10T12:09:09.089Z,59
2017-10-10T12:10:11.520Z,58
2017-10-10T12:11:13.943Z,44
2017-10-10T12:12:16.384Z,38
2017-10-10T12:13:18.804Z,38
2017-10-10T12:14:21.236Z,24
2017-10-10T12:15:24.028Z,18
2017-10-10T12:16:26.453Z,18
2017-10-10T12:17:28.888Z,19
2017-10-10T12:18:31.329Z,14
2017-10-10T12:19:33.759Z,21
2017-10-10T12:20:36.196Z,22
2017-10-10T12:21:38.627Z,30
2017-10-10T12:22:41.053Z,38
2017-10-10T12:23:43.496Z,33
2017-10-10T12:24:45.930Z,34
2017-10-10T12:25:48.361Z,39
2017-10-10T12:26:51.161Z,50
2017-10-10T12:27:53.582Z,44
2017-10-10T12:28:56.377Z,44
2017-10-10T12:29:58.810Z,39
2017-10-10T12:31:01.597Z,55
2017-10-10T12:32:04.028Z,59
2017-10-10T12:33:06.456Z,55
2017-10-10T12:34:08.902Z,45
2017-10-10T12:35:11.316Z,42
2017-10-10T12:36:13.755Z,40
2017-10-10T12:37:16.196Z,40
2017-10-10T12:38:18.632Z,43
2017-10-10T12:39:21.070Z,46
2017-10-10T12:40:23.508Z,49
2017-10-10T12:41:25.934Z,49
2017-10-10T12:42:28.382Z,41
2017-10-10T12:43:30.815Z,33
2017-10-10T12:44:33.235Z,33
2017-10-10T12:45:35.668Z,31
2017-10-10T12:46:38.105Z,26
2017-10-10T12:47:40.540Z,23
2017-10-10T12:48:42.976Z,19
2017-10-10T12:49:45.410Z,23
2017-10-10T12:50:47.836Z,21
2017-10-10T12:51:50.278Z,21
2017-10-10T12:52:52.706Z,25
2017-10-10T12:53:55.146Z,34
2017-10-10T12:54:57.573Z,38
2017-10-10T12:56:00.014Z,39
2017-10-10T12:57:02.473Z,41
2017-10-10T12:58:04.910Z,36
2017-10-10T12:59:07.344Z,35
2017-10-10T13:00:10.141Z,40
2017-10-10T13:01:12.581Z,35
2017-10-10T13:02:15.016Z,33
2017-10-10T13:03:17.445Z,29
2017-10-10T13:04:19.876Z,32
2017-10-10T13:05:22.315Z,29
2017-10-10T13:06:24.744Z,28
2017-10-10T13:07:27.181Z,32
2017-10-10T13:08:29.632Z,31
2017-10-10T13:09:32.060Z,34
2017-10-10T13:10:34.486Z,37
2017-10-10T13:11:36.917Z,46
2017-10-10T13:12:39.700Z,57
2017-10-10T13:13:42.131Z,60
2017-10-10T13:14:44.557Z,59
2017-10-10T13:15:46.986Z,60
2017-10-10T13:16:49.426Z,51
2017-10-10T13:17:51.855Z,58
2017-10-10T13:19:45.573Z,83
2017-10-10T13:20:48.318Z,113
2017-10-10T13:21:50.694Z,116
2017-10-10T13:22:53.072Z,106
2017-10-10T13:23:55.450Z,104
2017-10-10T13:24:57.835Z,112
2017-10-10T13:26:00.218Z,105
2017-10-10T13:27:02.602Z,118
2017-10-10T13:28:05.178Z,132
2017-10-10T13:29:07.565Z,146
2017-10-10T13:30:09.948Z,122
2017-10-10T13:31:12.320Z,132
2017-10-10T13:32:14.702Z,93
2017-10-10T13:33:17.431Z,98
2017-10-10T13:34:20.173Z,92
2017-10-10T13:35:22.562Z,76
2017-10-10T13:36:24.947Z,77
2017-10-10T13:37:27.322Z,56
2017-10-10T13:38:29.706Z,43
2017-10-10T13:39:32.091Z,44
2017-10-10T13:40:34.474Z,49
2017-10-10T13:41:36.867Z,58
2017-10-10T13:42:39.239Z,39
2017-10-10T13:43:41.959Z,31
2017-10-10T13:44:44.352Z,28
2017-10-10T13:45:46.727Z,27
2017-10-10T13:46:49.112Z,27
2017-10-10T13:47:51.501Z,20
2017-10-10T13:48:53.889Z,28
2017-10-10T13:49:56.270Z,43
2017-10-10T13:50:58.649Z,44
2017-10-10T13:52:01.022Z,62
2017-10-10T13:53:03.395Z,57
2017-10-10T13:54:05.781Z,43
2017-10-10T13:55:08.165Z,41
2017-10-10T13:56:10.541Z,35
2017-10-10T13:57:12.925Z,37
2017-10-10T13:58:15.651Z,30
2017-10-10T13:59:18.048Z,31
2017-10-10T14:00:20.432Z,35
2017-10-10T14:01:22.806Z,35
2017-10-10T14:02:25.186Z,36
2017-10-10T14:03:27.570Z,35
2017-10-10T14:04:29.958Z,29
2017-10-10T14:05:32.341Z,25
2017-10-10T14:06:35.109Z,23
2017-10-10T14:07:37.493Z,22
2017-10-10T14:08:39.866Z,20
2017-10-10T14:09:42.254Z,20
2017-10-10T14:10:44.649Z,18
2017-10-10T14:11:47.023Z,17
2017-10-10T14:12:49.400Z,15
2017-10-10T14:13:51.778Z,14
2017-10-10T14:14:54.162Z,13
2017-10-10T14:15:56.559Z,13
2017-10-10T14:16:59.291Z,12
2017-10-10T14:18:01.661Z,11
2017-10-10T14:19:04.764Z,11
2017-10-10T14:20:07.143Z,13
2017-10-10T14:21:09.535Z,16
2017-10-10T14:22:12.296Z,17
2017-10-10T14:23:14.666Z,22
2017-10-10T14:24:17.048Z,27
2017-10-10T14:25:19.439Z,33
2017-10-10T14:26:21.821Z,35
2017-10-10T14:27:24.198Z,31
2017-10-10T14:28:26.582Z,28
2017-10-10T14:29:29.682Z,38
2017-10-10T14:30:32.067Z,38
2017-10-10T14:31:34.450Z,41
2017-10-10T14:32:37.161Z,43
2017-10-10T14:33:39.542Z,41
2017-10-10T14:34:42.292Z,42
2017-10-10T14:35:44.668Z,48
2017-10-10T14:36:47.051Z,49
2017-10-10T14:37:49.425Z,53
2017-10-10T14:38:51.811Z,55
2017-10-10T14:39:54.193Z,56
2017-10-10T14:40:56.579Z,57
2017-10-10T14:41:58.960Z,58
2017-10-10T14:43:01.335Z,59
2017-10-10T14:44:03.729Z,58
2017-10-10T14:45:06.463Z,56
2017-10-10T14:46:08.847Z,54
2017-10-10T14:47:11.228Z,54
2017-10-10T14:48:13.610Z,51
2017-10-10T14:49:16.371Z,50
2017-10-10T14:50:18.747Z,48
2017-10-10T14:51:21.129Z,47
2017-10-10T14:52:23.514Z,48
2017-10-10T14:53:25.898Z,47
2017-10-10T14:54:28.269Z,46
2017-10-10T14:55:30.661Z,45
2017-10-10T14:56:33.026Z,45
2017-10-10T14:57:35.413Z,44
2017-10-10T14:58:37.806Z,43
2017-10-10T14:59:40.528Z,41
2017-10-10T15:00:43.274Z,38
2017-10-10T15:01:45.659Z,36
2017-10-10T15:02:48.041Z,34
2017-10-10T15:03:50.426Z,34
2017-10-10T15:04:52.805Z,32